sensor_id;sensor_type;location;lat;lon;timestamp;pressure;altitude;pressure_sealevel;temperature;humidity
13934;BME280;7039;52.168;9.866;2023-04-28T00:01:48;100697.88;;;9.48;55.60
13934;BME280;7039;52.168;9.866;2023-04-28T00:04:16;100703.38;;;9.40;56.14
13934;BME280;7039;52.168;9.866;2023-04-28T00:06:42;100694.28;;;9.30;56.36
13934;BME280;7039;52.168;9.866;2023-04-28T00:09:09;100698.06;;;9.23;56.18
13934;BME280;7039;52.168;9.866;2023-04-28T00:11:36;100691.44;;;9.36;56.71
13934;BME280;7039;52.168;9.866;2023-04-28T00:14:03;100692.22;;;9.38;56.44
13934;BME280;7039;52.168;9.866;2023-04-28T00:16:29;100693.44;;;9.29;57.17
13934;BME280;7039;52.168;9.866;2023-04-28T00:18:56;100683.09;;;9.28;57.01
13934;BME280;7039;52.168;9.866;2023-04-28T00:21:23;100677.09;;;9.26;56.56
13934;BME280;7039;52.168;9.866;2023-04-28T00:23:50;100677.81;;;9.29;56.83
13934;BME280;7039;52.168;9.866;2023-04-28T00:26:16;100671.03;;;9.25;56.80
13934;BME280;7039;52.168;9.866;2023-04-28T00:28:43;100673.06;;;9.39;56.76
13934;BME280;7039;52.168;9.866;2023-04-28T00:31:10;100671.44;;;9.36;56.62
13934;BME280;7039;52.168;9.866;2023-04-28T00:33:37;100666.63;;;9.48;56.57
13934;BME280;7039;52.168;9.866;2023-04-28T00:36:04;100661.09;;;9.55;56.18
13934;BME280;7039;52.168;9.866;2023-04-28T00:38:32;100659.13;;;9.60;55.97
13934;BME280;7039;52.168;9.866;2023-04-28T00:40:59;100660.66;;;9.46;56.43
13934;BME280;7039;52.168;9.866;2023-04-28T00:43:25;100659.28;;;9.57;56.08
13934;BME280;7039;52.168;9.866;2023-04-28T00:45:52;100660.69;;;9.65;55.82
13934;BME280;7039;52.168;9.866;2023-04-28T00:48:19;100659.28;;;9.57;56.05
13934;BME280;7039;52.168;9.866;2023-04-28T00:50:46;100655.00;;;9.56;56.07
13934;BME280;7039;52.168;9.866;2023-04-28T00:53:13;100647.09;;;9.58;55.87
13934;BME280;7039;52.168;9.866;2023-04-28T00:55:41;100657.66;;;9.55;56.18
13934;BME280;7039;52.168;9.866;2023-04-28T00:58:08;100654.69;;;9.62;56.32
13934;BME280;7039;52.168;9.866;2023-04-28T01:00:34;100643.59;;;9.59;56.32
13934;BME280;7039;52.168;9.866;2023-04-28T01:03:01;100644.69;;;9.53;56.60
13934;BME280;7039;52.168;9.866;2023-04-28T01:05:28;100646.25;;;9.57;56.32
13934;BME280;7039;52.168;9.866;2023-04-28T01:07:55;100642.22;;;9.50;56.18
13934;BME280;7039;52.168;9.866;2023-04-28T01:10:22;100634.56;;;9.47;56.55
13934;BME280;7039;52.168;9.866;2023-04-28T01:12:50;100638.38;;;9.59;56.22
13934;BME280;7039;52.168;9.866;2023-04-28T01:15:17;100634.94;;;9.58;56.81
13934;BME280;7039;52.168;9.866;2023-04-28T01:17:45;100634.06;;;9.58;56.58
13934;BME280;7039;52.168;9.866;2023-04-28T01:20:12;100628.41;;;9.48;57.04
13934;BME280;7039;52.168;9.866;2023-04-28T01:22:39;100618.44;;;9.58;56.66
13934;BME280;7039;52.168;9.866;2023-04-28T01:25:07;100625.28;;;9.60;56.61
13934;BME280;7039;52.168;9.866;2023-04-28T01:27:33;100628.81;;;9.59;56.50
13934;BME280;7039;52.168;9.866;2023-04-28T01:30:00;100622.03;;;9.55;57.03
13934;BME280;7039;52.168;9.866;2023-04-28T01:32:26;100618.53;;;9.56;57.00
13934;BME280;7039;52.168;9.866;2023-04-28T01:34:53;100622.56;;;9.43;57.22
13934;BME280;7039;52.168;9.866;2023-04-28T01:37:19;100618.84;;;9.49;57.22
13934;BME280;7039;52.168;9.866;2023-04-28T01:39:45;100611.84;;;9.30;57.12
13934;BME280;7039;52.168;9.866;2023-04-28T01:42:13;100612.03;;;9.46;57.45
13934;BME280;7039;52.168;9.866;2023-04-28T01:44:40;100603.50;;;9.43;56.85
13934;BME280;7039;52.168;9.866;2023-04-28T01:47:06;100606.75;;;9.48;56.77
13934;BME280;7039;52.168;9.866;2023-04-28T01:49:33;100602.19;;;9.53;56.83
13934;BME280;7039;52.168;9.866;2023-04-28T01:51:59;100596.34;;;9.48;57.14
13934;BME280;7039;52.168;9.866;2023-04-28T01:54:26;100605.91;;;9.47;56.76
13934;BME280;7039;52.168;9.866;2023-04-28T01:56:52;100604.00;;;9.51;56.66
13934;BME280;7039;52.168;9.866;2023-04-28T01:59:20;100598.31;;;9.43;56.73
13934;BME280;7039;52.168;9.866;2023-04-28T02:01:47;100595.97;;;9.36;56.99
13934;BME280;7039;52.168;9.866;2023-04-28T02:04:13;100584.63;;;9.37;57.34
13934;BME280;7039;52.168;9.866;2023-04-28T02:06:40;100583.19;;;9.30;57.05
13934;BME280;7039;52.168;9.866;2023-04-28T02:09:06;100572.09;;;9.06;58.11
13934;BME280;7039;52.168;9.866;2023-04-28T02:11:33;100575.94;;;9.18;58.07
13934;BME280;7039;52.168;9.866;2023-04-28T02:13:59;100567.41;;;9.14;58.29
13934;BME280;7039;52.168;9.866;2023-04-28T02:16:27;100572.34;;;9.20;58.51
13934;BME280;7039;52.168;9.866;2023-04-28T02:18:53;100563.31;;;9.09;58.75
13934;BME280;7039;52.168;9.866;2023-04-28T02:21:20;100568.81;;;9.01;58.71
13934;BME280;7039;52.168;9.866;2023-04-28T02:23:46;100560.31;;;8.97;58.84
13934;BME280;7039;52.168;9.866;2023-04-28T02:26:14;100568.31;;;8.93;58.99
13934;BME280;7039;52.168;9.866;2023-04-28T02:28:41;100549.06;;;8.97;59.60
13934;BME280;7039;52.168;9.866;2023-04-28T02:31:08;100550.94;;;8.93;59.61
13934;BME280;7039;52.168;9.866;2023-04-28T02:33:37;100550.81;;;8.96;59.21
13934;BME280;7039;52.168;9.866;2023-04-28T02:36:04;100536.41;;;8.88;59.56
13934;BME280;7039;52.168;9.866;2023-04-28T02:38:31;100544.81;;;8.94;59.28
13934;BME280;7039;52.168;9.866;2023-04-28T02:40:58;100540.69;;;8.90;58.83
13934;BME280;7039;52.168;9.866;2023-04-28T02:43:25;100541.81;;;9.04;58.77
13934;BME280;7039;52.168;9.866;2023-04-28T02:45:51;100532.34;;;8.82;59.30
13934;BME280;7039;52.168;9.866;2023-04-28T02:48:18;100530.06;;;8.95;59.09
13934;BME280;7039;52.168;9.866;2023-04-28T02:50:46;100540.47;;;8.95;59.19
13934;BME280;7039;52.168;9.866;2023-04-28T02:53:12;100529.50;;;8.88;59.24
13934;BME280;7039;52.168;9.866;2023-04-28T02:55:39;100526.16;;;8.85;59.78
13934;BME280;7039;52.168;9.866;2023-04-28T02:58:05;100519.59;;;8.76;59.86
13934;BME280;7039;52.168;9.866;2023-04-28T03:00:32;100525.72;;;8.75;59.97
13934;BME280;7039;52.168;9.866;2023-04-28T03:02:58;100520.69;;;8.70;59.83
13934;BME280;7039;52.168;9.866;2023-04-28T03:05:26;100522.81;;;8.61;60.47
13934;BME280;7039;52.168;9.866;2023-04-28T03:07:53;100511.38;;;8.65;60.60
13934;BME280;7039;52.168;9.866;2023-04-28T03:10:20;100512.41;;;8.61;60.68
13934;BME280;7039;52.168;9.866;2023-04-28T03:12:47;100511.72;;;8.57;61.20
13934;BME280;7039;52.168;9.866;2023-04-28T03:15:13;100505.28;;;8.66;60.80
13934;BME280;7039;52.168;9.866;2023-04-28T03:17:40;100502.78;;;8.63;61.13
13934;BME280;7039;52.168;9.866;2023-04-28T03:20:08;100503.91;;;8.57;61.04
13934;BME280;7039;52.168;9.866;2023-04-28T03:22:35;100498.03;;;8.30;60.88
13934;BME280;7039;52.168;9.866;2023-04-28T03:25:03;100497.69;;;8.17;61.96
13934;BME280;7039;52.168;9.866;2023-04-28T03:27:30;100489.78;;;7.98;62.03
13934;BME280;7039;52.168;9.866;2023-04-28T03:29:57;100492.56;;;7.93;62.69
13934;BME280;7039;52.168;9.866;2023-04-28T03:32:23;100487.91;;;8.02;63.07
13934;BME280;7039;52.168;9.866;2023-04-28T03:34:50;100479.88;;;7.86;63.91
13934;BME280;7039;52.168;9.866;2023-04-28T03:37:16;100485.50;;;7.97;63.69
13934;BME280;7039;52.168;9.866;2023-04-28T03:39:43;100483.31;;;8.08;63.64
13934;BME280;7039;52.168;9.866;2023-04-28T03:42:11;100478.25;;;8.05;63.95
13934;BME280;7039;52.168;9.866;2023-04-28T03:44:37;100465.44;;;8.01;63.77
13934;BME280;7039;52.168;9.866;2023-04-28T03:47:04;100467.72;;;8.08;63.32
13934;BME280;7039;52.168;9.866;2023-04-28T03:49:30;100471.59;;;8.20;63.07
13934;BME280;7039;52.168;9.866;2023-04-28T03:51:57;100475.88;;;8.21;63.23
13934;BME280;7039;52.168;9.866;2023-04-28T03:54:23;100478.47;;;8.21;63.45
13934;BME280;7039;52.168;9.866;2023-04-28T03:56:50;100472.50;;;8.19;63.49
13934;BME280;7039;52.168;9.866;2023-04-28T03:59:18;100472.94;;;8.29;63.50
13934;BME280;7039;52.168;9.866;2023-04-28T04:01:44;100470.53;;;8.24;63.72
13934;BME280;7039;52.168;9.866;2023-04-28T04:04:10;100474.53;;;8.33;63.66
13934;BME280;7039;52.168;9.866;2023-04-28T04:06:37;100469.50;;;8.28;63.71
13934;BME280;7039;52.168;9.866;2023-04-28T04:09:03;100465.78;;;7.91;65.11
13934;BME280;7039;52.168;9.866;2023-04-28T04:11:30;100464.75;;;7.73;64.69
13934;BME280;7039;52.168;9.866;2023-04-28T04:13:56;100458.78;;;7.93;64.34
13934;BME280;7039;52.168;9.866;2023-04-28T04:16:24;100465.81;;;8.13;64.22
13934;BME280;7039;52.168;9.866;2023-04-28T04:18:51;100460.28;;;8.21;64.34
13934;BME280;7039;52.168;9.866;2023-04-28T04:21:17;100455.31;;;8.15;63.65
13934;BME280;7039;52.168;9.866;2023-04-28T04:23:44;100459.78;;;8.13;63.68
13934;BME280;7039;52.168;9.866;2023-04-28T04:26:10;100464.16;;;7.89;64.27
13934;BME280;7039;52.168;9.866;2023-04-28T04:28:37;100460.91;;;8.06;64.27
13934;BME280;7039;52.168;9.866;2023-04-28T04:31:03;100453.81;;;8.31;63.99
13934;BME280;7039;52.168;9.866;2023-04-28T04:33:31;100451.38;;;8.49;63.58
13934;BME280;7039;52.168;9.866;2023-04-28T04:35:58;100456.19;;;8.58;63.09
13934;BME280;7039;52.168;9.866;2023-04-28T04:38:25;100459.19;;;8.69;63.03
13934;BME280;7039;52.168;9.866;2023-04-28T04:40:51;100449.84;;;8.86;62.98
13934;BME280;7039;52.168;9.866;2023-04-28T04:43:18;100458.28;;;8.91;62.97
13934;BME280;7039;52.168;9.866;2023-04-28T04:45:45;100456.16;;;8.99;62.57
13934;BME280;7039;52.168;9.866;2023-04-28T04:48:11;100460.06;;;8.70;62.63
13934;BME280;7039;52.168;9.866;2023-04-28T04:50:39;100453.88;;;8.93;62.75
13934;BME280;7039;52.168;9.866;2023-04-28T04:53:06;100454.75;;;8.92;62.54
13934;BME280;7039;52.168;9.866;2023-04-28T04:55:33;100454.94;;;9.08;62.46
13934;BME280;7039;52.168;9.866;2023-04-28T04:57:59;100454.66;;;9.14;62.41
13934;BME280;7039;52.168;9.866;2023-04-28T05:00:26;100446.13;;;9.10;62.21
13934;BME280;7039;52.168;9.866;2023-04-28T05:02:52;100449.97;;;9.22;62.32
13934;BME280;7039;52.168;9.866;2023-04-28T05:05:19;100443.63;;;9.28;62.12
13934;BME280;7039;52.168;9.866;2023-04-28T05:07:47;100439.50;;;9.43;62.27
13934;BME280;7039;52.168;9.866;2023-04-28T05:10:13;100433.59;;;9.39;62.17
13934;BME280;7039;52.168;9.866;2023-04-28T05:12:40;100433.88;;;9.52;61.97
13934;BME280;7039;52.168;9.866;2023-04-28T05:15:06;100430.78;;;9.44;61.77
13934;BME280;7039;52.168;9.866;2023-04-28T05:17:33;100418.19;;;9.15;61.71
13934;BME280;7039;52.168;9.866;2023-04-28T05:20:00;100420.84;;;9.14;61.80
13934;BME280;7039;52.168;9.866;2023-04-28T05:22:26;100424.69;;;9.05;62.45
13934;BME280;7039;52.168;9.866;2023-04-28T05:24:54;100430.78;;;9.25;62.54
13934;BME280;7039;52.168;9.866;2023-04-28T05:27:20;100421.72;;;9.33;62.31
13934;BME280;7039;52.168;9.866;2023-04-28T05:29:47;100427.88;;;9.50;62.39
13934;BME280;7039;52.168;9.866;2023-04-28T05:32:13;100426.50;;;9.43;61.97
13934;BME280;7039;52.168;9.866;2023-04-28T05:34:40;100434.09;;;9.47;61.75
13934;BME280;7039;52.168;9.866;2023-04-28T05:37:06;100433.00;;;9.70;61.63
13934;BME280;7039;52.168;9.866;2023-04-28T05:39:33;100425.75;;;9.77;61.67
13934;BME280;7039;52.168;9.866;2023-04-28T05:42:00;100424.16;;;9.74;61.43
13934;BME280;7039;52.168;9.866;2023-04-28T05:44:28;100418.19;;;9.90;61.10
13934;BME280;7039;52.168;9.866;2023-04-28T05:46:55;100417.97;;;9.94;59.94
13934;BME280;7039;52.168;9.866;2023-04-28T05:49:21;100415.78;;;10.04;59.71
13934;BME280;7039;52.168;9.866;2023-04-28T05:51:48;100413.63;;;10.12;59.14
13934;BME280;7039;52.168;9.866;2023-04-28T05:54:14;100404.84;;;10.32;59.23
13934;BME280;7039;52.168;9.866;2023-04-28T05:56:41;100408.53;;;10.45;58.97
13934;BME280;7039;52.168;9.866;2023-04-28T05:59:08;100403.22;;;10.64;58.74
13934;BME280;7039;52.168;9.866;2023-04-28T06:01:35;100404.09;;;10.81;58.01
13934;BME280;7039;52.168;9.866;2023-04-28T06:04:03;100392.75;;;10.82;57.81
13934;BME280;7039;52.168;9.866;2023-04-28T06:06:29;100394.00;;;10.75;58.00
13934;BME280;7039;52.168;9.866;2023-04-28T06:08:55;100392.22;;;10.75;57.80
13934;BME280;7039;52.168;9.866;2023-04-28T06:11:22;100388.66;;;10.94;57.69
13934;BME280;7039;52.168;9.866;2023-04-28T06:13:49;100387.53;;;10.82;58.00
13934;BME280;7039;52.168;9.866;2023-04-28T06:16:17;100390.50;;;10.92;57.87
13934;BME280;7039;52.168;9.866;2023-04-28T06:18:44;100387.56;;;10.98;57.70
13934;BME280;7039;52.168;9.866;2023-04-28T06:21:10;100388.59;;;11.11;57.79
13934;BME280;7039;52.168;9.866;2023-04-28T06:23:37;100389.88;;;11.20;57.22
13934;BME280;7039;52.168;9.866;2023-04-28T06:26:05;100387.03;;;11.24;56.50
13934;BME280;7039;52.168;9.866;2023-04-28T06:28:31;100387.16;;;11.37;56.92
13934;BME280;7039;52.168;9.866;2023-04-28T06:30:58;100387.78;;;11.58;55.72
13934;BME280;7039;52.168;9.866;2023-04-28T06:33:26;100386.25;;;11.70;55.38
13934;BME280;7039;52.168;9.866;2023-04-28T06:35:52;100391.03;;;11.62;55.40
13934;BME280;7039;52.168;9.866;2023-04-28T06:38:19;100391.44;;;11.86;54.65
13934;BME280;7039;52.168;9.866;2023-04-28T06:40:45;100397.06;;;12.10;54.45
13934;BME280;7039;52.168;9.866;2023-04-28T06:43:12;100401.28;;;12.43;54.12
13934;BME280;7039;52.168;9.866;2023-04-28T06:45:38;100398.47;;;12.46;53.68
13934;BME280;7039;52.168;9.866;2023-04-28T06:48:06;100403.75;;;12.74;53.22
13934;BME280;7039;52.168;9.866;2023-04-28T06:50:33;100389.84;;;12.74;52.76
13934;BME280;7039;52.168;9.866;2023-04-28T06:53:00;100386.53;;;12.70;52.91
13934;BME280;7039;52.168;9.866;2023-04-28T06:55:26;100386.84;;;12.94;52.76
13934;BME280;7039;52.168;9.866;2023-04-28T06:57:53;100386.06;;;13.07;52.02
13934;BME280;7039;52.168;9.866;2023-04-28T07:00:20;100381.56;;;13.23;51.88
13934;BME280;7039;52.168;9.866;2023-04-28T07:02:46;100370.38;;;13.35;51.81
13934;BME280;7039;52.168;9.866;2023-04-28T07:05:13;100370.16;;;13.39;52.04
13934;BME280;7039;52.168;9.866;2023-04-28T07:07:41;100366.69;;;13.38;51.73
13934;BME280;7039;52.168;9.866;2023-04-28T07:10:08;100363.28;;;13.50;51.36
13934;BME280;7039;52.168;9.866;2023-04-28T07:12:35;100365.81;;;13.79;51.24
13934;BME280;7039;52.168;9.866;2023-04-28T07:15:01;100352.81;;;13.77;50.61
13934;BME280;7039;52.168;9.866;2023-04-28T07:17:28;100352.84;;;13.90;50.39
13934;BME280;7039;52.168;9.866;2023-04-28T07:19:54;100356.66;;;13.99;50.62
13934;BME280;7039;52.168;9.866;2023-04-28T07:22:21;100352.47;;;14.09;50.50
13934;BME280;7039;52.168;9.866;2023-04-28T07:24:49;100354.69;;;14.15;49.74
13934;BME280;7039;52.168;9.866;2023-04-28T07:27:15;100351.63;;;14.09;50.09
13934;BME280;7039;52.168;9.866;2023-04-28T07:29:42;100348.50;;;14.29;49.40
13934;BME280;7039;52.168;9.866;2023-04-28T07:32:08;100336.50;;;14.12;49.46
13934;BME280;7039;52.168;9.866;2023-04-28T07:34:35;100340.66;;;13.89;50.16
13934;BME280;7039;52.168;9.866;2023-04-28T07:37:02;100342.22;;;14.32;49.69
13934;BME280;7039;52.168;9.866;2023-04-28T07:39:30;100349.38;;;14.55;49.29
13934;BME280;7039;52.168;9.866;2023-04-28T07:41:58;100340.09;;;14.11;49.42
13934;BME280;7039;52.168;9.866;2023-04-28T07:44:24;100335.59;;;14.26;49.29
13934;BME280;7039;52.168;9.866;2023-04-28T07:46:52;100339.50;;;14.59;50.72
13934;BME280;7039;52.168;9.866;2023-04-28T07:49:18;100334.44;;;14.81;49.85
13934;BME280;7039;52.168;9.866;2023-04-28T07:51:45;100332.00;;;14.91;48.93
13934;BME280;7039;52.168;9.866;2023-04-28T07:54:12;100327.66;;;15.16;48.58
13934;BME280;7039;52.168;9.866;2023-04-28T07:56:38;100330.19;;;15.17;48.86
13934;BME280;7039;52.168;9.866;2023-04-28T07:59:07;100321.72;;;15.25;48.67
13934;BME280;7039;52.168;9.866;2023-04-28T08:01:34;100316.09;;;15.06;48.24
13934;BME280;7039;52.168;9.866;2023-04-28T08:04:00;100314.63;;;15.38;48.43
13934;BME280;7039;52.168;9.866;2023-04-28T08:06:27;100311.06;;;15.39;48.43
13934;BME280;7039;52.168;9.866;2023-04-28T08:08:54;100313.88;;;15.73;48.15
13934;BME280;7039;52.168;9.866;2023-04-28T08:11:21;100314.06;;;16.05;47.53
13934;BME280;7039;52.168;9.866;2023-04-28T08:13:47;100309.47;;;15.85;46.88
13934;BME280;7039;52.168;9.866;2023-04-28T08:16:15;100310.25;;;16.10;47.40
13934;BME280;7039;52.168;9.866;2023-04-28T08:18:42;100304.47;;;16.28;46.24
13934;BME280;7039;52.168;9.866;2023-04-28T08:21:10;100304.22;;;16.32;46.39
13934;BME280;7039;52.168;9.866;2023-04-28T08:23:36;100310.06;;;16.69;46.67
13934;BME280;7039;52.168;9.866;2023-04-28T08:26:03;100304.13;;;16.56;46.54
13934;BME280;7039;52.168;9.866;2023-04-28T08:28:30;100311.53;;;16.62;46.64
13934;BME280;7039;52.168;9.866;2023-04-28T08:30:58;100309.00;;;16.38;46.65
13934;BME280;7039;52.168;9.866;2023-04-28T08:33:26;100306.72;;;16.33;47.17
13934;BME280;7039;52.168;9.866;2023-04-28T08:35:54;100312.84;;;16.34;46.82
13934;BME280;7039;52.168;9.866;2023-04-28T08:38:20;100305.41;;;16.50;46.57
13934;BME280;7039;52.168;9.866;2023-04-28T08:40:48;100304.22;;;16.43;47.29
13934;BME280;7039;52.168;9.866;2023-04-28T08:43:14;100309.25;;;16.68;47.18
13934;BME280;7039;52.168;9.866;2023-04-28T08:45:42;100305.34;;;16.85;47.05
13934;BME280;7039;52.168;9.866;2023-04-28T08:48:16;100314.38;;;17.15;46.35
13934;BME280;7039;52.168;9.866;2023-04-28T08:50:48;100312.81;;;17.24;45.93
13934;BME280;7039;52.168;9.866;2023-04-28T08:53:20;100305.59;;;17.26;45.91
13934;BME280;7039;52.168;9.866;2023-04-28T08:55:49;100298.59;;;17.47;45.78
13934;BME280;7039;52.168;9.866;2023-04-28T08:58:16;100294.53;;;17.43;45.60
13934;BME280;7039;52.168;9.866;2023-04-28T09:00:43;100287.88;;;17.17;45.60
13934;BME280;7039;52.168;9.866;2023-04-28T09:03:09;100286.97;;;17.06;45.52
13934;BME280;7039;52.168;9.866;2023-04-28T09:05:36;100283.78;;;17.35;45.81
13934;BME280;7039;52.168;9.866;2023-04-28T09:08:04;100280.50;;;17.75;45.59
13934;BME280;7039;52.168;9.866;2023-04-28T09:10:31;100286.22;;;17.80;45.42
13934;BME280;7039;52.168;9.866;2023-04-28T09:12:57;100286.84;;;17.84;44.70
13934;BME280;7039;52.168;9.866;2023-04-28T09:15:25;100282.97;;;18.09;45.40
13934;BME280;7039;52.168;9.866;2023-04-28T09:17:52;100281.00;;;18.01;44.82
13934;BME280;7039;52.168;9.866;2023-04-28T09:20:19;100272.94;;;17.82;44.34
13934;BME280;7039;52.168;9.866;2023-04-28T09:22:46;100260.50;;;17.40;45.24
13934;BME280;7039;52.168;9.866;2023-04-28T09:25:15;100260.06;;;17.35;46.33
13934;BME280;7039;52.168;9.866;2023-04-28T09:27:42;100251.56;;;17.31;46.21
13934;BME280;7039;52.168;9.866;2023-04-28T09:30:09;100256.16;;;17.18;46.91
13934;BME280;7039;52.168;9.866;2023-04-28T09:32:36;100254.47;;;17.49;46.68
13934;BME280;7039;52.168;9.866;2023-04-28T09:35:02;100253.13;;;17.55;46.04
13934;BME280;7039;52.168;9.866;2023-04-28T09:37:32;100250.97;;;17.60;46.25
13934;BME280;7039;52.168;9.866;2023-04-28T09:40:04;100252.72;;;17.39;47.00
13934;BME280;7039;52.168;9.866;2023-04-28T09:42:33;100251.56;;;17.85;46.62
13934;BME280;7039;52.168;9.866;2023-04-28T09:45:01;100247.94;;;18.07;46.17
13934;BME280;7039;52.168;9.866;2023-04-28T09:47:28;100244.84;;;18.53;45.48
13934;BME280;7039;52.168;9.866;2023-04-28T09:49:55;100238.59;;;18.64;45.09
13934;BME280;7039;52.168;9.866;2023-04-28T09:52:22;100230.75;;;18.43;45.79
13934;BME280;7039;52.168;9.866;2023-04-28T09:54:50;100235.06;;;18.44;45.46
13934;BME280;7039;52.168;9.866;2023-04-28T09:57:17;100236.50;;;18.58;45.44
13934;BME280;7039;52.168;9.866;2023-04-28T09:59:46;100238.28;;;18.88;45.90
13934;BME280;7039;52.168;9.866;2023-04-28T10:02:14;100229.13;;;18.62;45.61
13934;BME280;7039;52.168;9.866;2023-04-28T10:04:41;100228.59;;;18.27;46.23
13934;BME280;7039;52.168;9.866;2023-04-28T10:07:10;100234.03;;;18.05;47.25
13934;BME280;7039;52.168;9.866;2023-04-28T10:09:37;100228.94;;;17.71;46.90
13934;BME280;7039;52.168;9.866;2023-04-28T10:12:04;100236.84;;;17.71;47.89
13934;BME280;7039;52.168;9.866;2023-04-28T10:14:31;100237.03;;;17.90;47.87
13934;BME280;7039;52.168;9.866;2023-04-28T10:17:00;100239.31;;;18.05;47.89
13934;BME280;7039;52.168;9.866;2023-04-28T10:19:27;100239.50;;;18.13;47.88
13934;BME280;7039;52.168;9.866;2023-04-28T10:22:03;100238.84;;;18.21;48.23
13934;BME280;7039;52.168;9.866;2023-04-28T10:24:50;100237.75;;;18.23;48.10
13934;BME280;7039;52.168;9.866;2023-04-28T10:27:19;100242.03;;;17.93;48.51
13934;BME280;7039;52.168;9.866;2023-04-28T10:29:46;100244.38;;;17.75;48.79
13934;BME280;7039;52.168;9.866;2023-04-28T10:32:16;100236.91;;;17.60;49.51
13934;BME280;7039;52.168;9.866;2023-04-28T10:34:42;100237.94;;;17.68;49.34
13934;BME280;7039;52.168;9.866;2023-04-28T10:37:09;100223.34;;;17.43;49.05
13934;BME280;7039;52.168;9.866;2023-04-28T10:39:39;100230.03;;;17.47;49.50
13934;BME280;7039;52.168;9.866;2023-04-28T10:42:49;100237.84;;;17.49;49.74
13934;BME280;7039;52.168;9.866;2023-04-28T10:45:58;100228.31;;;17.25;50.65
13934;BME280;7039;52.168;9.866;2023-04-28T10:51:34;100219.03;;;17.63;50.26
13934;BME280;7039;52.168;9.866;2023-04-28T10:54:17;100216.94;;;17.78;50.65
13934;BME280;7039;52.168;9.866;2023-04-28T10:57:19;100221.63;;;17.95;50.42
13934;BME280;7039;52.168;9.866;2023-04-28T10:59:47;100220.84;;;18.05;51.40
13934;BME280;7039;52.168;9.866;2023-04-28T11:02:35;100223.44;;;18.26;52.74
13934;BME280;7039;52.168;9.866;2023-04-28T11:05:13;100219.63;;;18.40;51.58
13934;BME280;7039;52.168;9.866;2023-04-28T11:11:18;100211.72;;;18.49;52.29
13934;BME280;7039;52.168;9.866;2023-04-28T11:13:46;100209.91;;;18.90;50.03
13934;BME280;7039;52.168;9.866;2023-04-28T11:16:14;100201.56;;;18.85;49.30
13934;BME280;7039;52.168;9.866;2023-04-28T11:18:58;100192.66;;;19.25;48.15
13934;BME280;7039;52.168;9.866;2023-04-28T11:21:29;100190.13;;;19.72;46.75
13934;BME280;7039;52.168;9.866;2023-04-28T11:23:57;100198.75;;;20.21;46.73
13934;BME280;7039;52.168;9.866;2023-04-28T11:26:26;100187.75;;;19.79;45.69
13934;BME280;7039;52.168;9.866;2023-04-28T11:28:54;100192.22;;;19.69;46.24
13934;BME280;7039;52.168;9.866;2023-04-28T11:31:22;100190.56;;;19.48;45.29
13934;BME280;7039;52.168;9.866;2023-04-28T11:33:53;100181.63;;;19.69;45.51
13934;BME280;7039;52.168;9.866;2023-04-28T11:36:31;100178.72;;;20.19;45.31
13934;BME280;7039;52.168;9.866;2023-04-28T11:38:58;100187.00;;;20.34;45.29
13934;BME280;7039;52.168;9.866;2023-04-28T11:41:26;100177.47;;;20.41;44.98
13934;BME280;7039;52.168;9.866;2023-04-28T11:43:53;100181.31;;;20.56;44.26
13934;BME280;7039;52.168;9.866;2023-04-28T11:46:21;100177.41;;;20.23;45.39
13934;BME280;7039;52.168;9.866;2023-04-28T11:48:58;100180.56;;;20.64;45.64
13934;BME280;7039;52.168;9.866;2023-04-28T11:51:32;100171.66;;;20.65;44.20
13934;BME280;7039;52.168;9.866;2023-04-28T11:54:00;100179.53;;;20.75;45.31
13934;BME280;7039;52.168;9.866;2023-04-28T11:56:28;100173.06;;;20.59;44.85
13934;BME280;7039;52.168;9.866;2023-04-28T11:59:02;100163.50;;;20.49;45.26
13934;BME280;7039;52.168;9.866;2023-04-28T12:01:29;100161.72;;;20.12;46.57
13934;BME280;7039;52.168;9.866;2023-04-28T12:03:55;100168.00;;;20.11;46.57
13934;BME280;7039;52.168;9.866;2023-04-28T12:06:22;100161.72;;;19.74;46.62
13934;BME280;7039;52.168;9.866;2023-04-28T12:08:48;100162.16;;;19.60;47.07
13934;BME280;7039;52.168;9.866;2023-04-28T12:11:15;100165.38;;;19.34;47.39
13934;BME280;7039;52.168;9.866;2023-04-28T12:14:02;100159.69;;;19.00;48.25
13934;BME280;7039;52.168;9.866;2023-04-28T12:16:36;100154.69;;;18.87;48.99
13934;BME280;7039;52.168;9.866;2023-04-28T12:19:04;100158.09;;;18.58;49.27
13934;BME280;7039;52.168;9.866;2023-04-28T12:21:34;100156.91;;;18.42;49.59
13934;BME280;7039;52.168;9.866;2023-04-28T12:24:00;100157.59;;;18.24;50.25
13934;BME280;7039;52.168;9.866;2023-04-28T12:26:27;100159.75;;;18.09;51.22
13934;BME280;7039;52.168;9.866;2023-04-28T12:28:55;100166.91;;;17.98;52.52
13934;BME280;7039;52.168;9.866;2023-04-28T12:31:21;100157.16;;;17.67;53.64
13934;BME280;7039;52.168;9.866;2023-04-28T12:33:48;100157.69;;;17.40;54.54
13934;BME280;7039;52.168;9.866;2023-04-28T12:36:15;100161.03;;;17.42;56.00
13934;BME280;7039;52.168;9.866;2023-04-28T12:38:46;100157.47;;;17.11;56.04
13934;BME280;7039;52.168;9.866;2023-04-28T12:41:14;100149.44;;;16.80;56.84
13934;BME280;7039;52.168;9.866;2023-04-28T12:43:40;100149.53;;;16.79;57.23
13934;BME280;7039;52.168;9.866;2023-04-28T12:46:10;100156.84;;;16.75;58.48
13934;BME280;7039;52.168;9.866;2023-04-28T12:48:38;100164.88;;;16.85;58.61
13934;BME280;7039;52.168;9.866;2023-04-28T12:51:05;100161.22;;;16.54;59.10
13934;BME280;7039;52.168;9.866;2023-04-28T12:53:33;100164.34;;;16.47;59.99
13934;BME280;7039;52.168;9.866;2023-04-28T12:55:59;100152.84;;;16.48;59.39
13934;BME280;7039;52.168;9.866;2023-04-28T12:58:26;100158.59;;;16.54;59.65
13934;BME280;7039;52.168;9.866;2023-04-28T13:00:52;100155.34;;;16.61;59.62
13934;BME280;7039;52.168;9.866;2023-04-28T13:03:20;100150.75;;;16.75;59.99
13934;BME280;7039;52.168;9.866;2023-04-28T13:05:47;100151.53;;;16.43;60.18
13934;BME280;7039;52.168;9.866;2023-04-28T13:08:13;100150.44;;;16.57;60.75
13934;BME280;7039;52.168;9.866;2023-04-28T13:10:40;100144.25;;;16.46;60.95
13934;BME280;7039;52.168;9.866;2023-04-28T13:13:06;100152.25;;;16.45;59.95
13934;BME280;7039;52.168;9.866;2023-04-28T13:15:33;100143.91;;;16.28;60.34